createdAt,value
2018-05-01T00:04:04.360Z,99472
2018-05-01T00:09:05.907Z,99480
2018-05-01T00:14:07.468Z,99479
2018-05-01T00:19:09.003Z,99474
2018-05-01T00:24:10.543Z,99473
2018-05-01T00:29:12.836Z,99476
2018-05-01T00:34:15.119Z,99489
2018-05-01T00:39:17.399Z,99488
2018-05-01T00:44:18.958Z,99485
2018-05-01T00:49:20.468Z,99489
2018-05-01T00:54:22.007Z,99480
2018-05-01T00:59:24.311Z,99491
2018-05-01T01:04:25.855Z,99493
2018-05-01T01:09:28.155Z,99486
2018-05-01T01:14:30.451Z,99512
2018-05-01T01:19:31.997Z,99496
2018-05-01T01:24:34.291Z,99504
2018-05-01T01:29:36.603Z,99512
2018-05-01T01:34:38.176Z,99501
2018-05-01T01:39:39.295Z,99505
2018-05-01T01:44:41.196Z,99506
2018-05-01T01:49:42.335Z,99509
2018-05-01T01:54:44.240Z,99498
2018-05-01T01:59:45.407Z,99488
2018-05-01T02:04:46.593Z,99500
2018-05-01T02:09:47.731Z,99504
2018-05-01T02:14:48.854Z,99504
2018-05-01T02:19:50.694Z,99524
2018-05-01T02:24:51.835Z,99528
2018-05-01T02:29:52.955Z,99532
2018-05-01T02:34:54.100Z,99539
2018-05-01T02:39:55.984Z,99546
2018-05-01T02:44:57.878Z,99553
2018-05-01T02:49:59.247Z,99541
2018-05-01T02:55:00.366Z,99543
2018-05-01T03:00:02.245Z,99536
2018-05-01T03:05:04.120Z,99550
2018-05-01T03:10:06.011Z,99546
2018-05-01T03:15:07.146Z,99543
2018-05-01T03:20:08.308Z,99551
2018-05-01T03:25:09.422Z,99556
2018-05-01T03:30:10.554Z,99556
2018-05-01T03:35:11.709Z,99573
2018-05-01T03:40:12.966Z,99581
2018-05-01T03:45:14.304Z,99582
2018-05-01T03:50:15.400Z,99609
2018-05-01T03:55:16.531Z,99614
2018-05-01T04:00:18.401Z,99620
2018-05-01T04:05:20.265Z,99628
2018-05-01T04:10:21.592Z,99632
2018-05-01T04:15:22.717Z,99636
2018-05-01T04:20:23.859Z,99664
2018-05-01T04:25:25.838Z,99647
2018-05-01T04:30:26.911Z,99662
2018-05-01T04:35:28.063Z,99666
2018-05-01T04:40:29.924Z,99662
2018-05-01T04:45:31.805Z,99667
2018-05-01T04:50:33.799Z,99678
2018-05-01T04:55:34.939Z,99663
2018-05-01T05:00:36.066Z,99673
2018-05-01T05:05:37.166Z,99681
2018-05-01T05:10:39.031Z,99683
2018-05-01T05:15:40.908Z,99695
2018-05-01T05:20:42.882Z,99697
2018-05-01T05:25:44.092Z,99699
2018-05-01T05:30:45.204Z,99721
2018-05-01T05:35:47.102Z,99736
2018-05-01T05:40:48.247Z,99741
2018-05-01T05:45:49.611Z,99747
2018-05-01T05:50:51.551Z,99750
2018-05-01T05:55:52.654Z,99754
2018-05-01T06:00:53.799Z,99770
2018-05-01T06:05:55.676Z,99778
2018-05-01T06:10:57.547Z,99773
2018-05-01T06:15:59.458Z,99763
2018-05-01T06:21:00.591Z,99777
2018-05-01T06:26:01.825Z,99773
2018-05-01T06:31:03.036Z,99776
2018-05-01T06:36:04.169Z,99764
2018-05-01T06:41:05.345Z,99784
2018-05-01T06:46:06.492Z,99793
2018-05-01T06:51:07.712Z,99810
2018-05-01T06:56:08.892Z,99803
2018-05-01T07:01:10.788Z,99829
2018-05-01T07:06:11.903Z,99843
2018-05-01T07:11:13.101Z,99835
2018-05-01T07:16:14.277Z,99829
2018-05-01T07:21:15.447Z,99826
2018-05-01T07:26:16.545Z,99829
2018-05-01T07:31:17.700Z,99842
2018-05-01T07:36:18.843Z,99843
2018-05-01T07:41:19.965Z,99859
2018-05-01T07:46:21.095Z,99865
2018-05-01T07:51:23.021Z,99849
2018-05-01T07:56:24.270Z,99856
2018-05-01T08:01:25.431Z,99864
2018-05-01T08:06:26.643Z,99869
2018-05-01T08:11:28.037Z,99856
2018-05-01T08:16:29.339Z,99867
2018-05-01T08:27:15.261Z,99880
2018-05-01T08:32:16.374Z,99898
2018-05-01T08:37:17.474Z,99904
2018-05-01T08:42:18.601Z,99903
2018-05-01T08:47:20.462Z,99903
2018-05-01T08:52:21.549Z,99921
2018-05-01T08:57:22.691Z,99924
2018-05-01T09:02:26.405Z,99915
2018-05-01T09:07:30.236Z,99918
2018-05-01T09:12:34.339Z,99913
2018-05-01T09:17:38.883Z,99926
2018-05-01T09:22:43.289Z,99923
2018-05-01T09:27:45.807Z,99902
2018-05-01T09:32:47.855Z,99913
2018-05-01T09:37:51.573Z,99914
2018-05-01T09:42:55.219Z,99923
2018-05-01T09:47:57.987Z,99916
2018-05-01T09:53:07.794Z,99934
2018-05-01T09:58:12.110Z,99936
2018-05-01T10:03:16.627Z,99947
2018-05-01T10:08:22.114Z,99965
2018-05-01T10:13:26.568Z,99968
2018-05-01T10:18:32.166Z,99963
2018-05-01T10:23:36.623Z,99957
2018-05-01T10:28:42.611Z,99949
2018-05-01T10:33:47.357Z,99952
2018-05-01T10:38:51.139Z,99956
2018-05-01T10:43:55.852Z,99956
2018-05-01T10:48:59.851Z,99957
2018-05-01T10:54:04.839Z,99950
2018-05-01T10:59:10.471Z,99951
2018-05-01T11:04:16.244Z,99956
2018-05-01T11:09:20.860Z,99955
2018-05-01T11:14:23.502Z,99959
2018-05-01T11:19:28.665Z,99959
2018-05-01T11:24:32.677Z,99952
2018-05-01T11:29:38.072Z,99952
2018-05-01T11:34:42.457Z,99962
2018-05-01T11:39:44.515Z,99960
2018-05-01T11:44:49.726Z,99963
2018-05-01T11:49:55.131Z,99965
2018-05-01T11:54:59.372Z,99954
2018-05-01T12:00:03.925Z,99966
2018-05-01T12:05:07.748Z,99958
2018-05-01T12:10:12.004Z,99965
2018-05-01T12:15:15.584Z,99975
2018-05-01T12:20:20.171Z,99974
2018-05-01T12:25:23.464Z,99982
2018-05-01T12:30:26.456Z,99979
2018-05-01T12:35:30.180Z,99984
2018-05-01T12:40:34.780Z,99994
2018-05-01T12:45:37.718Z,100006
2018-05-01T12:50:42.619Z,100007
2018-05-01T12:55:44.265Z,100018
2018-05-01T13:00:45.870Z,100023
2018-05-01T13:05:47.578Z,100021
2018-05-01T13:10:49.098Z,100023
2018-05-01T13:15:50.591Z,100039
2018-05-01T13:21:01.244Z,100043
2018-05-01T13:26:03.904Z,100038
2018-05-01T13:31:05.785Z,100030
2018-05-01T13:36:07.403Z,100029
2018-05-01T13:41:11.151Z,100019
2018-05-01T13:46:15.864Z,100010
2018-05-01T13:51:17.468Z,100012
2018-05-01T14:01:55.379Z,100013
2018-05-01T14:06:56.875Z,100010
2018-05-01T14:11:59.831Z,100016
2018-05-01T14:17:02.102Z,100002
2018-05-01T14:22:22.509Z,99992
2018-05-01T14:27:31.208Z,99974
2018-05-01T14:32:34.309Z,99987
2018-05-01T14:37:37.214Z,99998
2018-05-01T14:42:46.788Z,100004
2018-05-01T14:47:48.626Z,100028
2018-05-01T14:52:55.168Z,100000
2018-05-01T14:57:57.558Z,100006
2018-05-01T15:03:04.464Z,100008
2018-05-01T15:08:06.855Z,100005
2018-05-01T15:13:09.372Z,99996
2018-05-01T15:18:12.665Z,99990
2018-05-01T15:23:22.184Z,100000
2018-05-01T15:28:24.475Z,100014
2018-05-01T15:33:26.352Z,99999
2018-05-01T15:38:28.290Z,99992
2018-05-01T15:43:30.893Z,99978
2018-05-01T15:48:32.528Z,99987
2018-05-01T15:59:20.240Z,99978
2018-05-01T16:04:21.773Z,99994
2018-05-01T16:09:23.463Z,99979
2018-05-01T16:14:25.831Z,99994
2018-05-01T16:19:27.383Z,99981
2018-05-01T16:24:29.240Z,99983
2018-05-01T16:29:30.901Z,99994
2018-05-01T16:34:32.465Z,99988
2018-05-01T16:39:34.112Z,99981
2018-05-01T16:44:35.794Z,99987
2018-05-01T16:49:37.380Z,99990
2018-05-01T16:54:38.974Z,99981
2018-05-01T16:59:40.780Z,99984
2018-05-01T17:04:43.566Z,99978
2018-05-01T17:09:45.938Z,99981
2018-05-01T17:14:47.705Z,99986
2018-05-01T17:19:49.260Z,99987
2018-05-01T17:24:50.955Z,99991
2018-05-01T17:29:52.619Z,99996
2018-05-01T17:34:54.197Z,99994
2018-05-01T17:39:55.739Z,99984
2018-05-01T17:44:57.394Z,99991
2018-05-01T17:49:59.096Z,99999
2018-05-01T17:55:00.704Z,100006
2018-05-01T18:00:03.016Z,100012
2018-05-01T18:05:04.575Z,100004
2018-05-01T18:10:06.197Z,100019
2018-05-01T18:15:07.773Z,100030
2018-05-01T18:20:10.320Z,100025
2018-05-01T18:25:11.948Z,100020
2018-05-01T18:30:14.280Z,100028
2018-05-01T18:35:15.852Z,100023
2018-05-01T18:40:17.424Z,100023
2018-05-01T18:45:19.102Z,100016
2018-05-01T18:50:21.476Z,100012
2018-05-01T18:55:23.419Z,100022
2018-05-01T19:00:25.796Z,100022
2018-05-01T19:05:28.155Z,100021
2018-05-01T19:10:29.964Z,100027
2018-05-01T19:15:31.635Z,100036
2018-05-01T19:20:33.947Z,100039
2018-05-01T19:25:35.644Z,100047
2018-05-01T19:30:37.392Z,100045
2018-05-01T19:35:38.985Z,100040
2018-05-01T19:40:40.596Z,100055
2018-05-01T19:45:42.909Z,100066
2018-05-01T19:50:44.596Z,100054
2018-05-01T19:55:47.006Z,100048
2018-05-01T20:00:48.792Z,100049
2018-05-01T20:05:50.374Z,100043
2018-05-01T20:10:52.856Z,100050
2018-05-01T20:15:54.419Z,100049
2018-05-01T20:20:56.012Z,100059
2018-05-01T20:25:58.520Z,100050
2018-05-01T20:31:00.219Z,100064
2018-05-01T20:36:01.818Z,100061
2018-05-01T20:41:03.441Z,100065
2018-05-01T20:46:05.099Z,100052
2018-05-01T20:51:06.747Z,100055
2018-05-01T20:56:09.077Z,100054
2018-05-01T21:01:10.613Z,100052
2018-05-01T21:06:13.144Z,100051
2018-05-01T21:11:14.824Z,100049
2018-05-01T21:16:17.232Z,100054
2018-05-01T21:21:19.075Z,100054
2018-05-01T21:26:20.808Z,100059
2018-05-01T21:31:23.119Z,100044
2018-05-01T21:36:24.954Z,100052
2018-05-01T21:41:26.483Z,100051
2018-05-01T21:46:28.043Z,100052
2018-05-01T21:51:29.679Z,100064
2018-05-01T21:56:32.188Z,100063
2018-05-01T22:01:33.731Z,100078
2018-05-01T22:06:36.090Z,100073
2018-05-01T22:11:37.627Z,100081
2018-05-01T22:16:39.215Z,100082
2018-05-01T22:21:40.767Z,100068
2018-05-01T22:26:42.340Z,100082
2018-05-01T22:31:43.872Z,100086
2018-05-01T22:36:45.645Z,100092
2018-05-01T22:41:47.207Z,100097
2018-05-01T22:46:49.491Z,100096
2018-05-01T22:51:51.265Z,100098
2018-05-01T22:56:53.511Z,100091
2018-05-01T23:01:55.096Z,100086
2018-05-01T23:07:03.503Z,100064
2018-05-01T23:12:05.247Z,100070
2018-05-01T23:17:06.877Z,100079
2018-05-01T23:22:08.362Z,100080
2018-05-01T23:27:10.025Z,100076
2018-05-01T23:32:11.685Z,100069
2018-05-01T23:37:13.959Z,100066
2018-05-01T23:42:15.745Z,100054
2018-05-01T23:47:18.018Z,100070
2018-05-01T23:52:19.544Z,100068
2018-05-01T23:57:21.100Z,100077
